createdAt,value
2017-07-26T06:22:03.939Z,49.30
2017-07-26T06:24:31.440Z,47.30
2017-07-26T06:26:58.945Z,57.17
2017-07-26T06:29:26.469Z,40.03
2017-07-26T06:31:54.784Z,39.67
2017-07-26T06:34:22.305Z,45.67
2017-07-26T06:36:50.614Z,49.97
2017-07-26T06:39:18.134Z,53.87
2017-07-26T06:41:46.454Z,51.33
2017-07-26T06:44:14.018Z,44.53
2017-07-26T06:46:41.538Z,44.93
2017-07-26T06:49:09.061Z,50.77
2017-07-26T06:51:36.603Z,56.43
2017-07-26T06:54:04.112Z,45.10
2017-07-26T06:56:31.629Z,41.87
2017-07-26T06:58:59.253Z,49.87
2017-07-26T07:01:26.761Z,48.97
2017-07-26T07:03:54.286Z,41.93
2017-07-26T07:06:21.814Z,36.80
2017-07-26T07:08:49.327Z,24.50
2017-07-26T07:11:16.832Z,21.40
2017-07-26T07:13:44.365Z,17.00
2017-07-26T07:16:12.640Z,18.97
2017-07-26T07:18:40.931Z,17.00
2017-07-26T07:21:08.479Z,11.93
2017-07-26T07:23:36.744Z,18.43
2017-07-26T07:26:05.007Z,7.60
2017-07-26T07:28:32.541Z,14.70
2017-07-26T07:31:00.093Z,9.60
2017-07-26T07:33:27.600Z,22.90
2017-07-26T07:35:55.900Z,15.50
2017-07-26T07:38:23.403Z,16.40
2017-07-26T07:40:50.926Z,27.73
2017-07-26T07:43:18.455Z,29.50
2017-07-26T07:45:46.723Z,29.40
2017-07-26T07:48:15.004Z,26.83
2017-07-26T07:50:43.428Z,27.37
2017-07-26T07:53:10.927Z,20.20
2017-07-26T07:55:38.543Z,25.33
2017-07-26T07:58:06.075Z,28.00
2017-07-26T08:00:33.575Z,21.70
2017-07-26T08:03:01.094Z,23.13
2017-07-26T08:05:28.624Z,17.67
2017-07-26T08:07:56.143Z,21.50
2017-07-26T08:10:23.657Z,12.57
2017-07-26T08:12:51.956Z,17.53
2017-07-26T08:15:19.481Z,16.47
2017-07-26T08:17:47.748Z,12.80
2017-07-26T08:20:15.294Z,14.27
2017-07-26T08:22:42.795Z,16.87
2017-07-26T08:25:10.309Z,14.87
2017-07-26T08:27:37.833Z,11.67
2017-07-26T08:30:06.127Z,14.50
2017-07-26T08:32:33.759Z,15.07
2017-07-26T08:35:01.303Z,19.13
2017-07-26T08:37:28.830Z,10.23
2017-07-26T08:39:56.328Z,15.07
2017-07-26T08:42:23.874Z,13.77
2017-07-26T08:44:52.150Z,11.53
2017-07-26T08:47:20.435Z,12.80
2017-07-26T08:49:47.982Z,18.70
2017-07-26T08:52:16.251Z,13.77
2017-07-26T08:54:44.516Z,16.73
2017-07-26T08:57:12.063Z,13.97
2017-07-26T08:59:39.577Z,14.90
2017-07-26T09:02:07.080Z,15.13
2017-07-26T09:04:34.626Z,16.30
2017-07-26T09:07:02.123Z,16.50
2017-07-26T09:09:30.414Z,15.13
2017-07-26T09:11:57.947Z,22.20
2017-07-26T09:14:25.449Z,16.67
2017-07-26T09:16:52.960Z,20.63
2017-07-26T09:19:20.499Z,17.20
2017-07-26T09:21:48.008Z,18.20
2017-07-26T09:24:15.527Z,15.00
2017-07-26T09:26:43.075Z,15.67
2017-07-26T09:29:10.584Z,13.43
2017-07-26T09:31:38.106Z,15.50
2017-07-26T09:34:05.651Z,17.77
2017-07-26T09:36:33.174Z,21.43
2017-07-26T09:39:00.675Z,16.40
2017-07-26T09:41:28.217Z,14.90
2017-07-26T09:43:55.755Z,16.73
2017-07-26T09:46:23.279Z,21.60
2017-07-26T09:48:51.594Z,18.13
2017-07-26T09:51:19.150Z,12.13
2017-07-26T09:53:46.666Z,9.50
2017-07-26T09:56:14.957Z,12.80
2017-07-26T09:58:43.235Z,13.40
2017-07-26T10:01:10.746Z,9.90
2017-07-26T10:03:38.287Z,9.77
2017-07-26T10:06:05.797Z,11.60
2017-07-26T10:08:34.090Z,9.20
2017-07-26T10:11:01.612Z,7.20
2017-07-26T10:13:29.122Z,6.70
2017-07-26T10:15:56.643Z,14.23
2017-07-26T10:18:24.936Z,7.63
2017-07-26T10:20:52.450Z,7.50
2017-07-26T10:23:19.948Z,8.00
2017-07-26T10:25:48.254Z,10.80
2017-07-26T10:28:15.770Z,6.57
2017-07-26T10:30:44.046Z,6.77
2017-07-26T10:33:12.354Z,9.67
2017-07-26T10:35:39.878Z,7.03
2017-07-26T10:38:07.390Z,7.13
2017-07-26T10:40:35.683Z,7.60
2017-07-26T10:43:03.202Z,6.40
2017-07-26T10:45:30.700Z,7.80
2017-07-26T10:47:58.232Z,5.50
2017-07-26T10:50:25.750Z,6.20
2017-07-26T10:52:53.302Z,8.83
2017-07-26T10:55:20.823Z,5.40
2017-07-26T10:57:49.079Z,5.97
2017-07-26T11:00:16.697Z,6.93
2017-07-26T11:02:44.220Z,8.80
2017-07-26T11:05:12.501Z,5.23
2017-07-26T11:07:40.773Z,11.97
2017-07-26T11:10:09.083Z,8.50
2017-07-26T11:12:36.598Z,6.10
2017-07-26T11:15:04.882Z,6.00
2017-07-26T11:17:33.180Z,12.17
2017-07-26T11:20:00.690Z,5.40
2017-07-26T11:22:28.206Z,5.43
2017-07-26T11:24:55.728Z,5.43
2017-07-26T11:27:24.010Z,5.00
2017-07-26T11:29:52.294Z,6.63
2017-07-26T11:32:19.838Z,4.60
2017-07-26T11:34:48.435Z,4.73
2017-07-26T11:37:17.040Z,4.70
2017-07-26T11:39:44.666Z,4.47
2017-07-26T11:42:12.963Z,4.77
2017-07-26T11:44:40.491Z,3.97
2017-07-26T11:47:08.427Z,3.93
2017-07-26T11:49:35.935Z,3.43
2017-07-26T11:52:04.219Z,4.00
2017-07-26T11:54:31.752Z,4.17
2017-07-26T11:57:00.079Z,8.40
2017-07-26T11:59:28.802Z,4.10
2017-07-26T12:01:56.426Z,4.20
2017-07-26T12:04:23.924Z,3.10
2017-07-26T12:06:51.442Z,3.30
2017-07-26T12:09:18.967Z,4.03
2017-07-26T12:11:47.232Z,9.73
2017-07-26T12:14:15.511Z,4.03
2017-07-26T12:16:43.800Z,4.67
2017-07-26T12:19:12.064Z,6.93
2017-07-26T12:21:40.402Z,3.83
2017-07-26T12:24:07.942Z,4.67
2017-07-26T12:26:35.449Z,8.60
2017-07-26T12:29:02.944Z,3.47
2017-07-26T12:31:30.490Z,5.83
2017-07-26T12:33:57.996Z,3.53
2017-07-26T12:36:25.500Z,3.30
2017-07-26T12:38:53.787Z,5.20
2017-07-26T12:41:21.291Z,7.03
2017-07-26T12:43:48.802Z,4.30
2017-07-26T12:46:16.337Z,3.83
2017-07-26T12:48:43.837Z,5.40
2017-07-26T12:51:11.344Z,3.73
2017-07-26T12:53:38.867Z,5.77
2017-07-26T12:56:06.387Z,3.40
2017-07-26T12:58:33.896Z,2.93
2017-07-26T13:01:01.420Z,4.37
2017-07-26T13:03:28.938Z,7.03
2017-07-26T13:05:56.448Z,6.80
2017-07-26T13:08:23.986Z,3.33
2017-07-26T13:10:51.501Z,3.13
2017-07-26T13:13:19.129Z,2.60
2017-07-26T13:15:46.975Z,5.47
2017-07-26T13:18:14.471Z,4.27
2017-07-26T13:20:41.971Z,10.13
2017-07-26T13:23:10.283Z,4.93
2017-07-26T13:25:37.806Z,11.40
2017-07-26T13:28:06.091Z,3.37
2017-07-26T13:30:34.907Z,3.13
2017-07-26T13:33:02.428Z,3.93
2017-07-26T13:35:30.687Z,4.70
2017-07-26T13:37:58.226Z,3.27
2017-07-26T13:40:25.729Z,3.10
2017-07-26T13:42:53.987Z,5.07
2017-07-26T13:45:21.522Z,3.63
2017-07-26T13:47:49.024Z,4.40
2017-07-26T13:50:16.528Z,3.10
2017-07-26T13:52:44.171Z,6.70
2017-07-26T13:55:11.692Z,3.63
2017-07-26T13:57:39.205Z,4.03
2017-07-26T14:00:07.487Z,3.27
2017-07-26T14:02:34.992Z,2.63
2017-07-26T14:05:02.488Z,3.50
2017-07-26T14:07:30.784Z,4.73
2017-07-26T14:09:58.283Z,2.37
2017-07-26T14:12:25.780Z,3.00
2017-07-26T14:14:54.085Z,2.93
2017-07-26T14:17:21.607Z,2.33
2017-07-26T14:19:49.871Z,3.53
2017-07-26T14:22:17.396Z,2.53
2017-07-26T14:24:44.906Z,4.97
2017-07-26T14:27:13.178Z,4.93
2017-07-26T14:29:41.472Z,6.83
2017-07-26T14:32:08.972Z,4.13
2017-07-26T14:34:36.486Z,4.20
2017-07-26T14:37:04.026Z,3.10
2017-07-26T14:39:32.292Z,4.33
2017-07-26T14:41:59.811Z,2.50
2017-07-26T14:44:27.354Z,3.67
2017-07-26T14:46:54.874Z,3.63
2017-07-26T14:49:22.368Z,2.33
2017-07-26T14:51:49.892Z,5.63
2017-07-26T14:54:17.497Z,2.80
2017-07-26T14:56:44.996Z,3.63
2017-07-26T14:59:12.618Z,3.03
2017-07-26T15:01:40.130Z,3.23
2017-07-26T15:04:07.628Z,4.07
2017-07-26T15:06:35.156Z,3.83
2017-07-26T15:09:03.424Z,2.20
2017-07-26T15:11:31.688Z,2.03
2017-07-26T15:13:59.222Z,4.00
2017-07-26T15:16:26.738Z,2.63
2017-07-26T15:18:54.273Z,6.90
2017-07-26T15:21:22.579Z,2.27
2017-07-26T15:23:50.075Z,2.13
2017-07-26T15:26:17.590Z,4.13
2017-07-26T15:28:45.130Z,2.60
2017-07-26T15:31:13.395Z,3.10
2017-07-26T15:33:41.004Z,2.17
2017-07-26T15:36:08.551Z,3.50
2017-07-26T15:38:36.059Z,2.80
2017-07-26T15:41:03.573Z,3.80
2017-07-26T15:43:31.104Z,5.33
2017-07-26T15:45:59.400Z,2.00
2017-07-26T15:48:26.977Z,3.77
2017-07-26T15:50:54.514Z,4.37
2017-07-26T15:53:22.012Z,4.80
2017-07-26T15:55:49.527Z,5.63
2017-07-26T15:58:17.872Z,3.97
2017-07-26T16:00:45.386Z,4.10
2017-07-26T16:03:12.908Z,2.50
2017-07-26T16:05:41.210Z,3.83
2017-07-26T16:08:08.712Z,3.00
2017-07-26T16:10:36.226Z,3.50
2017-07-26T16:13:03.806Z,4.10
2017-07-26T16:15:31.313Z,2.70
2017-07-26T16:17:59.602Z,2.93
2017-07-26T16:20:27.146Z,4.33
2017-07-26T16:22:55.419Z,10.33
2017-07-26T16:25:23.679Z,4.07
2017-07-26T16:27:51.196Z,3.60
2017-07-26T16:30:18.706Z,3.53
2017-07-26T16:32:46.223Z,1.67
2017-07-26T16:35:13.757Z,4.03
2017-07-26T16:37:41.332Z,2.80
2017-07-26T16:40:08.835Z,2.53
2017-07-26T16:42:36.355Z,3.37
2017-07-26T16:45:03.874Z,1.90
2017-07-26T16:47:32.140Z,2.53
2017-07-26T16:50:00.455Z,4.33
2017-07-26T16:52:27.955Z,3.57
2017-07-26T16:54:55.456Z,2.67
2017-07-26T16:57:22.997Z,3.73
2017-07-26T16:59:51.259Z,8.50
2017-07-26T17:02:18.757Z,4.50
2017-07-26T17:04:46.284Z,2.47
2017-07-26T17:07:14.616Z,4.50
2017-07-26T17:09:42.131Z,3.07
2017-07-26T17:12:10.420Z,8.83
2017-07-26T17:14:37.940Z,6.30
2017-07-26T17:17:05.433Z,3.30
2017-07-26T17:19:32.971Z,3.13
2017-07-26T17:22:01.396Z,3.13
2017-07-26T17:24:28.900Z,4.33
2017-07-26T17:26:56.420Z,5.23
2017-07-26T17:29:23.920Z,4.97
2017-07-26T17:31:51.421Z,6.07
2017-07-26T17:34:18.983Z,7.60
2017-07-26T17:36:46.484Z,7.40
2017-07-26T17:39:13.998Z,3.83
2017-07-26T17:41:41.516Z,3.87
2017-07-26T17:44:09.794Z,7.20
2017-07-26T17:46:38.074Z,3.87
2017-07-26T17:49:06.368Z,12.63
2017-07-26T17:51:33.906Z,3.20
2017-07-26T17:54:02.229Z,6.30
2017-07-26T17:56:29.751Z,5.30
2017-07-26T17:58:58.147Z,5.83
2017-07-26T18:01:25.652Z,7.23
2017-07-26T18:03:53.190Z,6.07
2017-07-26T18:06:20.723Z,5.70
2017-07-26T18:08:48.240Z,6.70
2017-07-26T18:11:16.540Z,5.37
2017-07-26T18:13:44.050Z,4.07
2017-07-26T18:16:11.552Z,3.90
2017-07-26T18:18:39.103Z,6.07
2017-07-26T18:21:07.370Z,8.33
2017-07-26T18:23:35.636Z,6.73
2017-07-26T18:26:03.160Z,7.70
2017-07-26T18:28:30.683Z,5.37
2017-07-26T18:30:58.193Z,6.67
2017-07-26T18:33:25.742Z,6.37
2017-07-26T18:35:53.244Z,8.13
2017-07-26T18:38:21.521Z,8.10
2017-07-26T18:40:49.808Z,6.40
2017-07-26T18:43:17.325Z,3.67
2017-07-26T18:45:44.832Z,10.13
2017-07-26T18:48:12.381Z,7.30
2017-07-26T18:50:39.876Z,4.60
2017-07-26T18:53:07.574Z,4.53
2017-07-26T18:55:35.210Z,8.03
2017-07-26T18:58:02.720Z,7.60
2017-07-26T19:00:30.303Z,5.40
2017-07-26T19:02:57.846Z,3.83
2017-07-26T19:05:25.358Z,6.17
2017-07-26T19:07:52.857Z,4.80
2017-07-26T19:10:20.398Z,5.57
2017-07-26T19:12:48.668Z,6.27
2017-07-26T19:15:16.937Z,6.70
2017-07-26T19:17:44.482Z,10.13
2017-07-26T19:20:12.004Z,10.83
2017-07-26T19:22:39.508Z,8.83
2017-07-26T19:25:07.070Z,11.20
2017-07-26T19:27:34.572Z,10.53
2017-07-26T19:30:02.080Z,10.20
2017-07-26T19:32:29.613Z,12.00
2017-07-26T19:34:57.121Z,11.23
2017-07-26T19:37:25.446Z,12.33
2017-07-26T19:39:52.973Z,13.37
2017-07-26T19:42:20.498Z,11.30
2017-07-26T19:44:48.042Z,10.27
2017-07-26T19:47:15.557Z,11.57
2017-07-26T19:49:43.056Z,9.07
2017-07-26T19:52:10.595Z,11.03
2017-07-26T19:54:38.120Z,12.30
2017-07-26T19:57:05.637Z,10.77
2017-07-26T19:59:33.186Z,9.80
2017-07-26T20:02:00.695Z,11.27
2017-07-26T20:04:28.200Z,11.40
2017-07-26T20:06:55.745Z,10.50
2017-07-26T20:09:24.028Z,16.90
2017-07-26T20:11:51.560Z,11.60
2017-07-26T20:14:19.084Z,11.63
2017-07-26T20:16:47.370Z,21.43
2017-07-26T20:19:15.657Z,11.03
2017-07-26T20:21:43.199Z,14.17
2017-07-26T20:24:11.464Z,15.00
2017-07-26T20:26:39.755Z,15.07
2017-07-26T20:29:08.058Z,11.87
2017-07-26T20:31:35.575Z,11.03
2017-07-26T20:34:03.851Z,15.10
2017-07-26T20:36:32.166Z,13.30
2017-07-26T20:38:59.670Z,13.03
2017-07-26T20:41:27.186Z,10.87
2017-07-26T20:43:54.731Z,18.00
2017-07-26T20:46:22.255Z,13.43
2017-07-26T20:48:50.547Z,12.77
2017-07-26T20:51:18.858Z,14.33
2017-07-26T20:53:46.372Z,14.03
2017-07-26T20:56:14.640Z,14.93
2017-07-26T20:58:42.252Z,17.13
2017-07-26T21:01:09.771Z,13.10
2017-07-26T21:03:38.039Z,19.57
2017-07-26T21:06:05.649Z,13.33
2017-07-26T21:08:33.166Z,15.37
2017-07-26T21:11:01.436Z,14.70
2017-07-26T21:13:29.724Z,24.47
2017-07-26T21:15:58.005Z,18.33
2017-07-26T21:18:26.418Z,19.90
2017-07-26T21:20:53.934Z,13.97
2017-07-26T21:23:22.199Z,14.77
2017-07-26T21:25:50.506Z,11.77
2017-07-26T21:28:18.004Z,11.13
2017-07-26T21:30:45.508Z,20.23
2017-07-26T21:33:13.049Z,14.70
2017-07-26T21:35:40.548Z,14.63
2017-07-26T21:38:08.076Z,13.30
2017-07-26T21:40:36.378Z,14.57
2017-07-26T21:43:03.888Z,14.20
2017-07-26T21:45:31.441Z,16.60
2017-07-26T21:47:58.963Z,16.33
2017-07-26T21:50:26.528Z,14.20
2017-07-26T21:52:54.074Z,20.83
2017-07-26T21:55:21.598Z,13.83
2017-07-26T21:57:49.878Z,11.00
2017-07-26T22:00:24.361Z,15.67
2017-07-26T22:02:51.898Z,11.83
2017-07-26T22:05:19.452Z,14.67
2017-07-26T22:07:47.019Z,22.47
2017-07-26T22:10:14.542Z,12.87
2017-07-26T22:12:42.845Z,13.40
2017-07-26T22:15:10.413Z,17.47
2017-07-26T22:17:37.949Z,21.47
2017-07-26T22:20:06.209Z,15.73
2017-07-26T22:22:34.538Z,12.90
2017-07-26T22:25:02.105Z,14.63
2017-07-26T22:27:29.664Z,19.70
2017-07-26T22:29:57.388Z,17.03
2017-07-26T22:32:24.915Z,15.83
2017-07-26T22:34:52.526Z,24.57
2017-07-26T22:37:20.081Z,12.27
2017-07-26T22:39:47.644Z,21.40
2017-07-26T22:42:15.181Z,11.00
2017-07-26T22:44:43.509Z,12.53
2017-07-26T22:47:11.153Z,10.20
2017-07-26T22:49:38.684Z,8.40
2017-07-26T22:52:06.269Z,13.43
2017-07-26T22:54:33.805Z,7.73
2017-07-26T22:57:01.383Z,10.53
2017-07-26T22:59:28.917Z,6.63
2017-07-26T23:01:56.551Z,6.37
2017-07-26T23:04:24.119Z,7.37
2017-07-26T23:06:52.407Z,6.30
2017-07-26T23:09:20.735Z,8.93
2017-07-26T23:11:48.278Z,11.63
2017-07-26T23:14:15.813Z,6.30
2017-07-26T23:16:43.375Z,8.40
2017-07-26T23:19:10.921Z,8.80
2017-07-26T23:21:39.235Z,5.17
2017-07-26T23:24:06.790Z,7.40
2017-07-26T23:26:34.322Z,5.60
2017-07-26T23:29:01.910Z,12.63
2017-07-26T23:31:29.690Z,5.93
2017-07-26T23:33:57.234Z,5.30
2017-07-26T23:36:24.769Z,5.73
2017-07-26T23:38:52.332Z,6.90
2017-07-26T23:41:19.891Z,5.07
2017-07-26T23:43:47.428Z,9.70
2017-07-26T23:46:15.772Z,17.73
2017-07-26T23:48:43.290Z,8.23
2017-07-26T23:51:10.828Z,7.10
2017-07-26T23:53:39.171Z,4.57
2017-07-26T23:56:06.691Z,5.07
2017-07-26T23:58:34.235Z,4.87
